sensor_id;sensor_type;location;lat;lon;timestamp;temperature;humidity
51175;DHT22;37240;50.104;20.010;2023-07-20T00:04:44;25.20;68.20
51175;DHT22;37240;50.104;20.010;2023-07-20T00:09:45;25.10;69.30
51175;DHT22;37240;50.104;20.010;2023-07-20T00:14:45;25.00;70.00
51175;DHT22;37240;50.104;20.010;2023-07-20T00:19:46;25.00;70.20
51175;DHT22;37240;50.104;20.010;2023-07-20T00:24:46;24.90;71.10
51175;DHT22;37240;50.104;20.010;2023-07-20T00:29:47;24.80;72.10
51175;DHT22;37240;50.104;20.010;2023-07-20T00:34:47;24.80;72.70
51175;DHT22;37240;50.104;20.010;2023-07-20T00:39:48;24.70;73.50
51175;DHT22;37240;50.104;20.010;2023-07-20T00:44:48;24.60;75.00
51175;DHT22;37240;50.104;20.010;2023-07-20T00:49:50;24.50;74.30
51175;DHT22;37240;50.104;20.010;2023-07-20T00:54:52;24.40;74.70
51175;DHT22;37240;50.104;20.010;2023-07-20T00:59:52;24.30;75.50
51175;DHT22;37240;50.104;20.010;2023-07-20T01:04:53;24.30;75.90
51175;DHT22;37240;50.104;20.010;2023-07-20T01:10:10;24.30;76.00
51175;DHT22;37240;50.104;20.010;2023-07-20T01:15:12;24.20;76.30
51175;DHT22;37240;50.104;20.010;2023-07-20T01:20:17;24.10;76.40
51175;DHT22;37240;50.104;20.010;2023-07-20T01:36:19;23.80;79.80
51175;DHT22;37240;50.104;20.010;2023-07-20T01:41:20;23.60;80.10
51175;DHT22;37240;50.104;20.010;2023-07-20T01:46:21;23.50;79.60
51175;DHT22;37240;50.104;20.010;2023-07-20T01:51:21;23.50;79.10
51175;DHT22;37240;50.104;20.010;2023-07-20T01:56:22;23.50;78.70
51175;DHT22;37240;50.104;20.010;2023-07-20T02:01:22;23.40;78.60
51175;DHT22;37240;50.104;20.010;2023-07-20T02:06:23;23.40;78.30
51175;DHT22;37240;50.104;20.010;2023-07-20T02:11:24;23.40;78.00
51175;DHT22;37240;50.104;20.010;2023-07-20T02:16:24;23.30;78.80
51175;DHT22;37240;50.104;20.010;2023-07-20T02:21:25;23.40;78.80
51175;DHT22;37240;50.104;20.010;2023-07-20T02:26:25;23.40;78.20
51175;DHT22;37240;50.104;20.010;2023-07-20T02:31:26;23.40;77.90
51175;DHT22;37240;50.104;20.010;2023-07-20T02:36:26;23.40;78.00
51175;DHT22;37240;50.104;20.010;2023-07-20T02:41:27;23.40;78.40
51175;DHT22;37240;50.104;20.010;2023-07-20T02:46:27;23.50;79.10
51175;DHT22;37240;50.104;20.010;2023-07-20T02:51:28;23.50;79.50
51175;DHT22;37240;50.104;20.010;2023-07-20T02:56:29;23.50;79.90
51175;DHT22;37240;50.104;20.010;2023-07-20T03:01:29;23.50;79.20
51175;DHT22;37240;50.104;20.010;2023-07-20T03:06:30;23.50;79.20
51175;DHT22;37240;50.104;20.010;2023-07-20T03:11:32;23.50;79.70
51175;DHT22;37240;50.104;20.010;2023-07-20T03:16:33;23.50;80.20
51175;DHT22;37240;50.104;20.010;2023-07-20T03:21:33;23.40;81.60
51175;DHT22;37240;50.104;20.010;2023-07-20T03:26:34;23.40;81.20
51175;DHT22;37240;50.104;20.010;2023-07-20T03:31:35;23.30;81.10
51175;DHT22;37240;50.104;20.010;2023-07-20T03:36:35;23.30;81.10
51175;DHT22;37240;50.104;20.010;2023-07-20T03:41:36;23.30;80.60
51175;DHT22;37240;50.104;20.010;2023-07-20T03:46:36;23.20;80.40
51175;DHT22;37240;50.104;20.010;2023-07-20T03:51:37;23.20;80.70
51175;DHT22;37240;50.104;20.010;2023-07-20T03:56:37;23.10;81.70
51175;DHT22;37240;50.104;20.010;2023-07-20T04:01:38;23.10;81.80
51175;DHT22;37240;50.104;20.010;2023-07-20T04:06:38;23.10;82.70
51175;DHT22;37240;50.104;20.010;2023-07-20T04:11:39;23.00;84.30
51175;DHT22;37240;50.104;20.010;2023-07-20T04:16:40;23.00;86.60
51175;DHT22;37240;50.104;20.010;2023-07-20T04:21:41;22.90;88.10
51175;DHT22;37240;50.104;20.010;2023-07-20T04:26:41;22.80;89.00
51175;DHT22;37240;50.104;20.010;2023-07-20T04:31:42;22.80;89.40
51175;DHT22;37240;50.104;20.010;2023-07-20T04:36:42;22.80;90.10
51175;DHT22;37240;50.104;20.010;2023-07-20T04:41:43;23.10;89.60
51175;DHT22;37240;50.104;20.010;2023-07-20T04:46:43;23.80;86.40
51175;DHT22;37240;50.104;20.010;2023-07-20T04:51:45;24.70;83.00
51175;DHT22;37240;50.104;20.010;2023-07-20T04:56:46;25.60;79.30
51175;DHT22;37240;50.104;20.010;2023-07-20T05:01:47;26.40;74.10
51175;DHT22;37240;50.104;20.010;2023-07-20T05:06:47;26.80;68.20
51175;DHT22;37240;50.104;20.010;2023-07-20T05:11:48;26.80;67.70
51175;DHT22;37240;50.104;20.010;2023-07-20T05:16:49;27.00;67.40
51175;DHT22;37240;50.104;20.010;2023-07-20T05:21:49;27.10;65.80
51175;DHT22;37240;50.104;20.010;2023-07-20T05:26:50;27.20;65.00
51175;DHT22;37240;50.104;20.010;2023-07-20T05:31:50;27.20;64.20
51175;DHT22;37240;50.104;20.010;2023-07-20T05:36:51;27.20;64.90
51175;DHT22;37240;50.104;20.010;2023-07-20T05:41:51;27.10;65.30
51175;DHT22;37240;50.104;20.010;2023-07-20T05:46:52;27.20;64.10
51175;DHT22;37240;50.104;20.010;2023-07-20T05:51:54;27.20;63.50
51175;DHT22;37240;50.104;20.010;2023-07-20T05:56:54;27.10;63.40
51175;DHT22;37240;50.104;20.010;2023-07-20T06:01:55;27.20;63.60
51175;DHT22;37240;50.104;20.010;2023-07-20T06:06:55;27.60;63.00
51175;DHT22;37240;50.104;20.010;2023-07-20T06:11:56;28.10;60.90
51175;DHT22;37240;50.104;20.010;2023-07-20T06:16:56;28.40;60.40
51175;DHT22;37240;50.104;20.010;2023-07-20T06:21:57;28.30;59.30
51175;DHT22;37240;50.104;20.010;2023-07-20T06:26:57;28.00;58.90
51175;DHT22;37240;50.104;20.010;2023-07-20T06:31:58;27.70;59.10
51175;DHT22;37240;50.104;20.010;2023-07-20T06:36:58;27.30;60.90
51175;DHT22;37240;50.104;20.010;2023-07-20T06:41:59;27.10;60.90
51175;DHT22;37240;50.104;20.010;2023-07-20T06:47:00;27.10;62.30
51175;DHT22;37240;50.104;20.010;2023-07-20T06:52:00;27.40;61.60
51175;DHT22;37240;50.104;20.010;2023-07-20T06:57:01;27.90;60.10
51175;DHT22;37240;50.104;20.010;2023-07-20T07:02:01;28.50;59.00
51175;DHT22;37240;50.104;20.010;2023-07-20T07:07:02;29.10;58.00
51175;DHT22;37240;50.104;20.010;2023-07-20T07:12:03;29.70;56.60
51175;DHT22;37240;50.104;20.010;2023-07-20T07:17:03;30.30;55.00
51175;DHT22;37240;50.104;20.010;2023-07-20T07:22:04;31.10;53.90
51175;DHT22;37240;50.104;20.010;2023-07-20T07:27:05;31.80;52.00
51175;DHT22;37240;50.104;20.010;2023-07-20T07:32:06;32.00;51.20
51175;DHT22;37240;50.104;20.010;2023-07-20T07:37:07;32.20;50.50
51175;DHT22;37240;50.104;20.010;2023-07-20T07:42:07;32.40;50.50
51175;DHT22;37240;50.104;20.010;2023-07-20T07:47:08;32.60;49.80
51175;DHT22;37240;50.104;20.010;2023-07-20T07:52:08;32.60;50.00
51175;DHT22;37240;50.104;20.010;2023-07-20T07:57:09;32.60;49.40
51175;DHT22;37240;50.104;20.010;2023-07-20T08:02:10;32.50;49.90
51175;DHT22;37240;50.104;20.010;2023-07-20T08:07:10;32.10;49.80
51175;DHT22;37240;50.104;20.010;2023-07-20T08:12:11;31.90;50.70
51175;DHT22;37240;50.104;20.010;2023-07-20T08:17:11;31.90;50.30
51175;DHT22;37240;50.104;20.010;2023-07-20T08:22:12;32.00;50.70
51175;DHT22;37240;50.104;20.010;2023-07-20T08:27:13;31.90;50.40
51175;DHT22;37240;50.104;20.010;2023-07-20T08:32:13;31.70;51.00
51175;DHT22;37240;50.104;20.010;2023-07-20T08:37:14;31.40;51.50
51175;DHT22;37240;50.104;20.010;2023-07-20T08:42:14;31.20;51.90
51175;DHT22;37240;50.104;20.010;2023-07-20T08:47:16;30.90;53.10
51175;DHT22;37240;50.104;20.010;2023-07-20T08:52:17;31.00;52.90
51175;DHT22;37240;50.104;20.010;2023-07-20T08:57:18;31.00;52.00
51175;DHT22;37240;50.104;20.010;2023-07-20T09:02:23;31.30;52.00
51175;DHT22;37240;50.104;20.010;2023-07-20T09:07:27;31.50;51.80
51175;DHT22;37240;50.104;20.010;2023-07-20T09:12:28;31.80;51.40
51175;DHT22;37240;50.104;20.010;2023-07-20T09:17:28;31.90;49.70
51175;DHT22;37240;50.104;20.010;2023-07-20T09:22:30;31.80;49.20
51175;DHT22;37240;50.104;20.010;2023-07-20T09:27:38;31.70;49.10
51175;DHT22;37240;50.104;20.010;2023-07-20T09:32:40;31.80;48.80
51175;DHT22;37240;50.104;20.010;2023-07-20T09:42:53;32.10;48.50
51175;DHT22;37240;50.104;20.010;2023-07-20T09:48:03;32.00;47.60
51175;DHT22;37240;50.104;20.010;2023-07-20T09:53:04;31.90;48.10
51175;DHT22;37240;50.104;20.010;2023-07-20T09:58:06;31.80;48.50
51175;DHT22;37240;50.104;20.010;2023-07-20T10:03:09;31.60;48.90
51175;DHT22;37240;50.104;20.010;2023-07-20T10:08:12;31.40;49.40
51175;DHT22;37240;50.104;20.010;2023-07-20T10:13:24;31.10;49.60
51175;DHT22;37240;50.104;20.010;2023-07-20T10:23:29;31.20;50.20
51175;DHT22;37240;50.104;20.010;2023-07-20T10:28:30;31.30;49.10
51175;DHT22;37240;50.104;20.010;2023-07-20T10:33:31;31.30;48.50
51175;DHT22;37240;50.104;20.010;2023-07-20T10:38:53;31.00;49.00
51175;DHT22;37240;50.104;20.010;2023-07-20T10:44:05;30.90;48.90
51175;DHT22;37240;50.104;20.010;2023-07-20T10:49:08;30.70;48.40
51175;DHT22;37240;50.104;20.010;2023-07-20T10:54:33;30.50;48.10
51175;DHT22;37240;50.104;20.010;2023-07-20T11:04:44;30.30;49.00
51175;DHT22;37240;50.104;20.010;2023-07-20T11:09:45;30.30;49.80
51175;DHT22;37240;50.104;20.010;2023-07-20T11:14:58;30.40;49.20
51175;DHT22;37240;50.104;20.010;2023-07-20T11:20:00;30.50;48.60
51175;DHT22;37240;50.104;20.010;2023-07-20T11:25:01;30.50;49.00
51175;DHT22;37240;50.104;20.010;2023-07-20T11:30:01;30.50;49.20
51175;DHT22;37240;50.104;20.010;2023-07-20T11:35:02;30.50;49.40
51175;DHT22;37240;50.104;20.010;2023-07-20T11:40:03;30.50;49.00
51175;DHT22;37240;50.104;20.010;2023-07-20T11:45:05;30.50;48.40
51175;DHT22;37240;50.104;20.010;2023-07-20T11:50:06;30.20;49.30
51175;DHT22;37240;50.104;20.010;2023-07-20T11:55:07;30.20;50.80
51175;DHT22;37240;50.104;20.010;2023-07-20T12:00:09;30.10;51.00
51175;DHT22;37240;50.104;20.010;2023-07-20T12:05:12;30.00;50.00
51175;DHT22;37240;50.104;20.010;2023-07-20T12:10:13;29.80;50.70
51175;DHT22;37240;50.104;20.010;2023-07-20T12:20:34;29.60;50.80
51175;DHT22;37240;50.104;20.010;2023-07-20T12:25:39;29.70;51.10
51175;DHT22;37240;50.104;20.010;2023-07-20T12:30:41;29.70;51.50
51175;DHT22;37240;50.104;20.010;2023-07-20T12:35:42;29.60;50.20
51175;DHT22;37240;50.104;20.010;2023-07-20T12:40:42;29.70;50.00
51175;DHT22;37240;50.104;20.010;2023-07-20T12:45:43;29.70;50.60
51175;DHT22;37240;50.104;20.010;2023-07-20T12:50:44;29.80;50.40
51175;DHT22;37240;50.104;20.010;2023-07-20T12:55:44;29.70;48.40
51175;DHT22;37240;50.104;20.010;2023-07-20T13:00:45;29.80;47.70
51175;DHT22;37240;50.104;20.010;2023-07-20T13:05:46;29.80;47.30
51175;DHT22;37240;50.104;20.010;2023-07-20T13:10:47;29.80;47.50
51175;DHT22;37240;50.104;20.010;2023-07-20T13:15:47;29.80;47.60
51175;DHT22;37240;50.104;20.010;2023-07-20T13:20:48;29.90;47.90
51175;DHT22;37240;50.104;20.010;2023-07-20T13:25:48;29.90;47.30
51175;DHT22;37240;50.104;20.010;2023-07-20T13:30:49;29.90;47.70
51175;DHT22;37240;50.104;20.010;2023-07-20T13:35:49;29.80;47.10
51175;DHT22;37240;50.104;20.010;2023-07-20T13:40:50;29.80;47.20
51175;DHT22;37240;50.104;20.010;2023-07-20T13:45:50;29.70;47.40
51175;DHT22;37240;50.104;20.010;2023-07-20T13:50:51;29.70;47.70
51175;DHT22;37240;50.104;20.010;2023-07-20T13:55:51;29.80;47.80
51175;DHT22;37240;50.104;20.010;2023-07-20T14:00:52;29.90;47.40
51175;DHT22;37240;50.104;20.010;2023-07-20T14:05:52;29.90;46.70
51175;DHT22;37240;50.104;20.010;2023-07-20T14:10:53;30.00;47.40
51175;DHT22;37240;50.104;20.010;2023-07-20T14:15:54;30.10;47.90
51175;DHT22;37240;50.104;20.010;2023-07-20T14:20:54;30.10;47.00
51175;DHT22;37240;50.104;20.010;2023-07-20T14:25:55;30.20;47.50
51175;DHT22;37240;50.104;20.010;2023-07-20T14:30:55;30.10;47.80
51175;DHT22;37240;50.104;20.010;2023-07-20T14:35:56;29.90;48.60
51175;DHT22;37240;50.104;20.010;2023-07-20T14:40:57;29.70;49.30
51175;DHT22;37240;50.104;20.010;2023-07-20T14:45:57;29.50;49.50
51175;DHT22;37240;50.104;20.010;2023-07-20T14:50:58;29.20;49.80
51175;DHT22;37240;50.104;20.010;2023-07-20T14:56:00;29.10;50.10
51175;DHT22;37240;50.104;20.010;2023-07-20T15:01:00;29.00;49.30
51175;DHT22;37240;50.104;20.010;2023-07-20T15:06:01;28.90;49.60
51175;DHT22;37240;50.104;20.010;2023-07-20T15:11:02;28.80;50.20
51175;DHT22;37240;50.104;20.010;2023-07-20T15:16:02;28.80;49.80
51175;DHT22;37240;50.104;20.010;2023-07-20T15:21:03;28.80;49.80
51175;DHT22;37240;50.104;20.010;2023-07-20T15:26:04;28.80;50.00
51175;DHT22;37240;50.104;20.010;2023-07-20T15:31:05;28.90;50.80
51175;DHT22;37240;50.104;20.010;2023-07-20T15:36:05;28.90;50.70
51175;DHT22;37240;50.104;20.010;2023-07-20T15:41:06;29.00;50.50
51175;DHT22;37240;50.104;20.010;2023-07-20T15:51:39;28.90;51.60
51175;DHT22;37240;50.104;20.010;2023-07-20T15:56:41;28.70;51.50
51175;DHT22;37240;50.104;20.010;2023-07-20T16:01:42;28.20;52.90
51175;DHT22;37240;50.104;20.010;2023-07-20T16:06:43;27.70;55.70
51175;DHT22;37240;50.104;20.010;2023-07-20T16:11:44;27.40;61.00
51175;DHT22;37240;50.104;20.010;2023-07-20T16:16:44;26.80;64.50
51175;DHT22;37240;50.104;20.010;2023-07-20T16:21:45;26.20;65.70
51175;DHT22;37240;50.104;20.010;2023-07-20T16:26:45;26.10;66.80
51175;DHT22;37240;50.104;20.010;2023-07-20T16:31:46;25.90;68.00
51175;DHT22;37240;50.104;20.010;2023-07-20T16:36:46;26.00;68.00
51175;DHT22;37240;50.104;20.010;2023-07-20T16:41:47;26.00;67.10
51175;DHT22;37240;50.104;20.010;2023-07-20T16:46:47;25.90;67.90
51175;DHT22;37240;50.104;20.010;2023-07-20T16:51:48;25.80;69.60
51175;DHT22;37240;50.104;20.010;2023-07-20T16:56:48;25.70;69.20
51175;DHT22;37240;50.104;20.010;2023-07-20T17:01:49;25.60;69.30
51175;DHT22;37240;50.104;20.010;2023-07-20T17:06:49;25.60;69.60
51175;DHT22;37240;50.104;20.010;2023-07-20T17:11:50;25.50;70.70
51175;DHT22;37240;50.104;20.010;2023-07-20T17:16:51;25.50;69.50
51175;DHT22;37240;50.104;20.010;2023-07-20T17:21:51;25.40;69.80
51175;DHT22;37240;50.104;20.010;2023-07-20T17:26:52;25.50;69.50
51175;DHT22;37240;50.104;20.010;2023-07-20T17:31:52;25.40;69.60
51175;DHT22;37240;50.104;20.010;2023-07-20T17:36:53;25.40;70.60
51175;DHT22;37240;50.104;20.010;2023-07-20T17:41:53;25.30;70.50
51175;DHT22;37240;50.104;20.010;2023-07-20T17:46:54;25.10;72.90
51175;DHT22;37240;50.104;20.010;2023-07-20T17:51:55;25.00;73.80
51175;DHT22;37240;50.104;20.010;2023-07-20T17:56:55;25.00;74.90
51175;DHT22;37240;50.104;20.010;2023-07-20T18:01:56;24.90;76.30
51175;DHT22;37240;50.104;20.010;2023-07-20T18:06:56;24.90;76.90
51175;DHT22;37240;50.104;20.010;2023-07-20T18:11:57;24.80;77.50
51175;DHT22;37240;50.104;20.010;2023-07-20T18:16:57;24.70;78.70
51175;DHT22;37240;50.104;20.010;2023-07-20T18:21:58;24.50;79.50
51175;DHT22;37240;50.104;20.010;2023-07-20T18:26:58;24.50;80.10
51175;DHT22;37240;50.104;20.010;2023-07-20T18:31:59;24.40;81.10
51175;DHT22;37240;50.104;20.010;2023-07-20T18:37:00;24.30;81.80
51175;DHT22;37240;50.104;20.010;2023-07-20T18:42:01;24.30;82.00
51175;DHT22;37240;50.104;20.010;2023-07-20T18:47:01;24.20;82.80
51175;DHT22;37240;50.104;20.010;2023-07-20T18:52:05;24.00;83.80
51175;DHT22;37240;50.104;20.010;2023-07-20T18:57:06;24.00;84.60
51175;DHT22;37240;50.104;20.010;2023-07-20T19:02:06;24.00;84.90
51175;DHT22;37240;50.104;20.010;2023-07-20T19:07:07;24.00;85.20
51175;DHT22;37240;50.104;20.010;2023-07-20T19:12:08;23.90;85.30
51175;DHT22;37240;50.104;20.010;2023-07-20T19:17:09;23.80;85.60
51175;DHT22;37240;50.104;20.010;2023-07-20T19:22:09;23.80;86.10
51175;DHT22;37240;50.104;20.010;2023-07-20T19:27:10;23.70;86.40
51175;DHT22;37240;50.104;20.010;2023-07-20T19:32:10;23.60;87.00
51175;DHT22;37240;50.104;20.010;2023-07-20T19:37:11;23.60;88.00
51175;DHT22;37240;50.104;20.010;2023-07-20T19:42:11;23.50;88.50
51175;DHT22;37240;50.104;20.010;2023-07-20T19:47:12;23.50;89.40
51175;DHT22;37240;50.104;20.010;2023-07-20T19:52:12;23.40;90.20
51175;DHT22;37240;50.104;20.010;2023-07-20T19:57:13;23.40;90.50
51175;DHT22;37240;50.104;20.010;2023-07-20T20:02:13;23.30;90.40
51175;DHT22;37240;50.104;20.010;2023-07-20T20:07:14;23.20;90.50
51175;DHT22;37240;50.104;20.010;2023-07-20T20:12:15;23.30;90.80
51175;DHT22;37240;50.104;20.010;2023-07-20T20:17:15;23.20;91.10
51175;DHT22;37240;50.104;20.010;2023-07-20T20:22:16;23.20;91.40
51175;DHT22;37240;50.104;20.010;2023-07-20T20:27:18;23.10;91.50
51175;DHT22;37240;50.104;20.010;2023-07-20T20:32:18;23.10;91.90
51175;DHT22;37240;50.104;20.010;2023-07-20T20:37:19;23.10;92.10
51175;DHT22;37240;50.104;20.010;2023-07-20T20:42:19;23.10;92.70
51175;DHT22;37240;50.104;20.010;2023-07-20T20:47:20;23.00;93.00
51175;DHT22;37240;50.104;20.010;2023-07-20T20:52:20;22.90;93.10
51175;DHT22;37240;50.104;20.010;2023-07-20T20:57:21;22.90;93.10
51175;DHT22;37240;50.104;20.010;2023-07-20T21:02:21;22.90;93.50
51175;DHT22;37240;50.104;20.010;2023-07-20T21:07:22;22.80;93.60
51175;DHT22;37240;50.104;20.010;2023-07-20T21:12:23;22.70;94.10
51175;DHT22;37240;50.104;20.010;2023-07-20T21:17:23;22.60;94.60
51175;DHT22;37240;50.104;20.010;2023-07-20T21:22:24;22.60;94.70
51175;DHT22;37240;50.104;20.010;2023-07-20T21:27:24;22.50;94.70
51175;DHT22;37240;50.104;20.010;2023-07-20T21:32:25;22.30;95.70
51175;DHT22;37240;50.104;20.010;2023-07-20T21:37:25;22.20;96.30
51175;DHT22;37240;50.104;20.010;2023-07-20T21:42:26;22.10;96.50
51175;DHT22;37240;50.104;20.010;2023-07-20T21:47:26;22.10;96.60
51175;DHT22;37240;50.104;20.010;2023-07-20T21:52:27;22.10;96.70
51175;DHT22;37240;50.104;20.010;2023-07-20T21:57:28;22.10;96.50
51175;DHT22;37240;50.104;20.010;2023-07-20T22:02:28;22.10;96.60
51175;DHT22;37240;50.104;20.010;2023-07-20T22:07:29;22.10;96.50
51175;DHT22;37240;50.104;20.010;2023-07-20T22:12:29;22.10;96.30
51175;DHT22;37240;50.104;20.010;2023-07-20T22:17:30;22.00;96.80
51175;DHT22;37240;50.104;20.010;2023-07-20T22:22:30;21.50;97.50
51175;DHT22;37240;50.104;20.010;2023-07-20T22:27:31;21.40;97.70
51175;DHT22;37240;50.104;20.010;2023-07-20T22:32:32;21.40;98.10
51175;DHT22;37240;50.104;20.010;2023-07-20T22:37:32;21.20;98.30
51175;DHT22;37240;50.104;20.010;2023-07-20T22:42:33;21.20;98.20
51175;DHT22;37240;50.104;20.010;2023-07-20T22:47:34;21.20;98.30
51175;DHT22;37240;50.104;20.010;2023-07-20T22:52:35;21.20;98.40
51175;DHT22;37240;50.104;20.010;2023-07-20T22:57:35;21.30;98.40
51175;DHT22;37240;50.104;20.010;2023-07-20T23:02:36;21.40;98.40
51175;DHT22;37240;50.104;20.010;2023-07-20T23:07:36;21.40;98.00
51175;DHT22;37240;50.104;20.010;2023-07-20T23:12:37;21.40;97.90
51175;DHT22;37240;50.104;20.010;2023-07-20T23:17:37;21.40;97.90
51175;DHT22;37240;50.104;20.010;2023-07-20T23:22:38;21.40;98.20
51175;DHT22;37240;50.104;20.010;2023-07-20T23:27:39;21.40;98.10
51175;DHT22;37240;50.104;20.010;2023-07-20T23:32:40;21.30;98.10
51175;DHT22;37240;50.104;20.010;2023-07-20T23:37:40;21.30;98.40
51175;DHT22;37240;50.104;20.010;2023-07-20T23:42:42;21.30;98.50
51175;DHT22;37240;50.104;20.010;2023-07-20T23:47:42;21.20;98.60
51175;DHT22;37240;50.104;20.010;2023-07-20T23:52:43;21.30;98.60
51175;DHT22;37240;50.104;20.010;2023-07-20T23:57:44;21.20;98.30
